sensor_id;sensor_type;location;lat;lon;timestamp;pressure;altitude;pressure_sealevel;temperature;humidity
44131;BME280;29792;48.726;9.248;2023-04-16T00:00:59;96769.41;;;7.85;100.00
44131;BME280;29792;48.726;9.248;2023-04-16T00:03:25;96762.88;;;7.81;100.00
44131;BME280;29792;48.726;9.248;2023-04-16T00:05:50;96761.84;;;7.84;100.00
44131;BME280;29792;48.726;9.248;2023-04-16T00:08:15;96765.09;;;7.86;100.00
44131;BME280;29792;48.726;9.248;2023-04-16T00:10:40;96768.47;;;7.86;100.00
44131;BME280;29792;48.726;9.248;2023-04-16T00:13:06;96765.91;;;7.86;100.00
44131;BME280;29792;48.726;9.248;2023-04-16T00:15:31;96772.97;;;7.83;100.00
44131;BME280;29792;48.726;9.248;2023-04-16T00:17:56;96774.91;;;7.79;100.00
44131;BME280;29792;48.726;9.248;2023-04-16T00:20:23;96774.81;;;7.81;100.00
44131;BME280;29792;48.726;9.248;2023-04-16T00:22:48;96771.44;;;7.80;100.00
44131;BME280;29792;48.726;9.248;2023-04-16T00:25:13;96772.38;;;7.79;100.00
44131;BME280;29792;48.726;9.248;2023-04-16T00:27:38;96776.66;;;7.79;100.00
44131;BME280;29792;48.726;9.248;2023-04-16T00:30:05;96772.38;;;7.79;100.00
44131;BME280;29792;48.726;9.248;2023-04-16T00:32:30;96779.00;;;7.82;100.00
44131;BME280;29792;48.726;9.248;2023-04-16T00:34:56;96779.00;;;7.82;100.00
44131;BME280;29792;48.726;9.248;2023-04-16T00:37:21;96780.72;;;7.81;100.00
44131;BME280;29792;48.726;9.248;2023-04-16T00:39:46;96780.72;;;7.81;100.00
44131;BME280;29792;48.726;9.248;2023-04-16T00:42:12;96775.63;;;7.81;100.00
44131;BME280;29792;48.726;9.248;2023-04-16T00:44:37;96771.44;;;7.80;100.00
44131;BME280;29792;48.726;9.248;2023-04-16T00:47:03;96778.28;;;7.80;100.00
44131;BME280;29792;48.726;9.248;2023-04-16T00:49:28;96775.97;;;7.77;100.00
44131;BME280;29792;48.726;9.248;2023-04-16T00:51:54;96776.06;;;7.75;100.00
44131;BME280;29792;48.726;9.248;2023-04-16T00:54:20;96779.44;;;7.76;100.00
44131;BME280;29792;48.726;9.248;2023-04-16T00:56:46;96776.06;;;7.75;100.00
44131;BME280;29792;48.726;9.248;2023-04-16T00:59:11;96773.75;;;7.72;100.00
44131;BME280;29792;48.726;9.248;2023-04-16T01:01:36;96777.91;;;7.73;100.00
44131;BME280;29792;48.726;9.248;2023-04-16T01:04:02;96773.75;;;7.72;100.00
44131;BME280;29792;48.726;9.248;2023-04-16T01:06:27;96775.38;;;7.73;100.00
44131;BME280;29792;48.726;9.248;2023-04-16T01:08:52;96776.19;;;7.74;100.00
44131;BME280;29792;48.726;9.248;2023-04-16T01:11:18;96780.47;;;7.73;100.00
44131;BME280;29792;48.726;9.248;2023-04-16T01:13:43;96780.34;;;7.75;100.00
44131;BME280;29792;48.726;9.248;2023-04-16T01:16:10;96788.94;;;7.74;100.00
44131;BME280;29792;48.726;9.248;2023-04-16T01:18:36;96778.53;;;7.77;100.00
44131;BME280;29792;48.726;9.248;2023-04-16T01:21:02;96780.16;;;7.78;100.00
44131;BME280;29792;48.726;9.248;2023-04-16T01:23:28;96781.88;;;7.77;100.00
44131;BME280;29792;48.726;9.248;2023-04-16T01:25:53;96785.34;;;7.76;100.00
44131;BME280;29792;48.726;9.248;2023-04-16T01:28:19;96798.00;;;7.78;100.00
44131;BME280;29792;48.726;9.248;2023-04-16T01:30:44;96795.44;;;7.78;100.00
44131;BME280;29792;48.726;9.248;2023-04-16T01:33:10;96789.41;;;7.79;100.00
44131;BME280;29792;48.726;9.248;2023-04-16T01:35:36;96790.22;;;7.79;100.00
44131;BME280;29792;48.726;9.248;2023-04-16T01:38:02;96799.59;;;7.79;100.00
44131;BME280;29792;48.726;9.248;2023-04-16T01:40:27;96787.78;;;7.78;100.00
44131;BME280;29792;48.726;9.248;2023-04-16T01:42:53;96794.38;;;7.80;100.00
44131;BME280;29792;48.726;9.248;2023-04-16T01:45:18;96802.97;;;7.79;100.00
44131;BME280;29792;48.726;9.248;2023-04-16T01:47:43;96793.81;;;7.77;100.00
44131;BME280;29792;48.726;9.248;2023-04-16T01:50:09;96798.91;;;7.77;100.00
44131;BME280;29792;48.726;9.248;2023-04-16T01:52:35;96796.38;;;7.77;100.00
44131;BME280;29792;48.726;9.248;2023-04-16T01:55:01;96802.38;;;7.76;100.00
44131;BME280;29792;48.726;9.248;2023-04-16T01:57:26;96798.91;;;7.77;100.00
44131;BME280;29792;48.726;9.248;2023-04-16T01:59:51;96799.72;;;7.77;100.00
44131;BME280;29792;48.726;9.248;2023-04-16T02:02:16;96796.38;;;7.77;100.00
44131;BME280;29792;48.726;9.248;2023-04-16T02:04:43;96798.00;;;7.78;100.00
44131;BME280;29792;48.726;9.248;2023-04-16T02:07:10;96800.53;;;7.78;100.00
44131;BME280;29792;48.726;9.248;2023-04-16T02:09:37;96786.97;;;7.77;100.00
44131;BME280;29792;48.726;9.248;2023-04-16T02:12:03;96793.81;;;7.77;100.00
44131;BME280;29792;48.726;9.248;2023-04-16T02:14:29;96790.56;;;7.75;100.00
44131;BME280;29792;48.726;9.248;2023-04-16T02:16:54;96794.13;;;7.72;100.00
44131;BME280;29792;48.726;9.248;2023-04-16T02:19:20;96791.59;;;7.72;100.00
44131;BME280;29792;48.726;9.248;2023-04-16T02:21:46;96791.69;;;7.71;100.00
44131;BME280;29792;48.726;9.248;2023-04-16T02:24:11;96797.50;;;7.73;100.00
44131;BME280;29792;48.726;9.248;2023-04-16T02:26:36;96802.69;;;7.71;100.00
44131;BME280;29792;48.726;9.248;2023-04-16T02:29:02;96798.41;;;7.72;100.00
44131;BME280;29792;48.726;9.248;2023-04-16T02:31:27;96807.22;;;7.68;100.00
44131;BME280;29792;48.726;9.248;2023-04-16T02:33:53;96803.75;;;7.69;100.00
44131;BME280;29792;48.726;9.248;2023-04-16T02:36:19;96805.50;;;7.68;100.00
44131;BME280;29792;48.726;9.248;2023-04-16T02:38:44;96800.28;;;7.70;100.00
44131;BME280;29792;48.726;9.248;2023-04-16T02:41:09;96804.44;;;7.71;100.00
44131;BME280;29792;48.726;9.248;2023-04-16T02:43:35;96801.88;;;7.71;100.00
44131;BME280;29792;48.726;9.248;2023-04-16T02:46:00;96809.66;;;7.69;100.00
44131;BME280;29792;48.726;9.248;2023-04-16T02:48:25;96803.03;;;7.66;100.00
44131;BME280;29792;48.726;9.248;2023-04-16T02:50:51;96814.88;;;7.68;100.00
44131;BME280;29792;48.726;9.248;2023-04-16T02:53:16;96812.31;;;7.68;100.00
44131;BME280;29792;48.726;9.248;2023-04-16T02:55:52;96813.03;;;7.70;100.00
44131;BME280;29792;48.726;9.248;2023-04-16T02:58:18;96812.22;;;7.69;100.00
44131;BME280;29792;48.726;9.248;2023-04-16T03:00:44;96807.94;;;7.70;100.00
44131;BME280;29792;48.726;9.248;2023-04-16T03:03:09;96804.78;;;7.66;100.00
44131;BME280;29792;48.726;9.248;2023-04-16T03:05:34;96807.31;;;7.66;100.00
44131;BME280;29792;48.726;9.248;2023-04-16T03:07:59;96809.06;;;7.65;100.00
44131;BME280;29792;48.726;9.248;2023-04-16T03:10:25;96808.13;;;7.66;100.00
44131;BME280;29792;48.726;9.248;2023-04-16T03:12:50;96811.50;;;7.67;100.00
44131;BME280;29792;48.726;9.248;2023-04-16T03:15:15;96806.50;;;7.65;100.00
44131;BME280;29792;48.726;9.248;2023-04-16T03:17:41;96809.97;;;7.64;100.00
44131;BME280;29792;48.726;9.248;2023-04-16T03:20:06;96810.91;;;7.63;100.00
44131;BME280;29792;48.726;9.248;2023-04-16T03:22:32;96816.72;;;7.65;100.00
44131;BME280;29792;48.726;9.248;2023-04-16T03:24:57;96814.97;;;7.66;100.00
44131;BME280;29792;48.726;9.248;2023-04-16T03:27:22;96818.34;;;7.66;100.00
44131;BME280;29792;48.726;9.248;2023-04-16T03:29:48;96822.63;;;7.66;100.00
44131;BME280;29792;48.726;9.248;2023-04-16T03:32:13;96822.81;;;7.63;100.00
44131;BME280;29792;48.726;9.248;2023-04-16T03:34:38;96822.25;;;7.59;100.00
44131;BME280;29792;48.726;9.248;2023-04-16T03:37:03;96824.91;;;7.58;100.00
44131;BME280;29792;48.726;9.248;2023-04-16T03:39:30;96836.53;;;7.62;100.00
44131;BME280;29792;48.726;9.248;2023-04-16T03:41:55;96825.72;;;7.58;100.00
44131;BME280;29792;48.726;9.248;2023-04-16T03:44:20;96830.81;;;7.58;100.00
44131;BME280;29792;48.726;9.248;2023-04-16T03:46:46;96832.66;;;7.56;100.00
44131;BME280;29792;48.726;9.248;2023-04-16T03:49:11;96833.25;;;7.60;100.00
44131;BME280;29792;48.726;9.248;2023-04-16T03:51:36;96830.59;;;7.61;100.00
44131;BME280;29792;48.726;9.248;2023-04-16T03:54:01;96832.22;;;7.62;100.00
44131;BME280;29792;48.726;9.248;2023-04-16T03:56:27;96831.44;;;7.62;100.00
44131;BME280;29792;48.726;9.248;2023-04-16T03:58:52;96833.75;;;7.65;100.00
44131;BME280;29792;48.726;9.248;2023-04-16T04:01:17;96827.34;;;7.59;100.00
44131;BME280;29792;48.726;9.248;2023-04-16T04:03:42;96826.63;;;7.57;100.00
44131;BME280;29792;48.726;9.248;2023-04-16T04:06:08;96830.81;;;7.58;100.00
44131;BME280;29792;48.726;9.248;2023-04-16T04:08:33;96837.53;;;7.59;100.00
44131;BME280;29792;48.726;9.248;2023-04-16T04:10:58;96841.00;;;7.58;100.00
44131;BME280;29792;48.726;9.248;2023-04-16T04:13:24;96843.56;;;7.58;100.00
44131;BME280;29792;48.726;9.248;2023-04-16T04:15:50;96842.75;;;7.58;100.00
44131;BME280;29792;48.726;9.248;2023-04-16T04:18:15;96843.47;;;7.60;100.00
44131;BME280;29792;48.726;9.248;2023-04-16T04:20:40;96838.47;;;7.58;100.00
44131;BME280;29792;48.726;9.248;2023-04-16T04:23:06;96844.28;;;7.60;100.00
44131;BME280;29792;48.726;9.248;2023-04-16T04:25:31;96846.00;;;7.60;100.00
44131;BME280;29792;48.726;9.248;2023-04-16T04:27:56;96845.19;;;7.59;100.00
44131;BME280;29792;48.726;9.248;2023-04-16T04:30:21;96850.59;;;7.55;100.00
44131;BME280;29792;48.726;9.248;2023-04-16T04:32:47;96853.97;;;7.55;100.00
44131;BME280;29792;48.726;9.248;2023-04-16T04:35:12;96853.16;;;7.55;100.00
44131;BME280;29792;48.726;9.248;2023-04-16T04:37:37;96851.66;;;7.52;100.00
44131;BME280;29792;48.726;9.248;2023-04-16T04:40:03;96861.59;;;7.55;100.00
44131;BME280;29792;48.726;9.248;2023-04-16T04:42:28;96864.50;;;7.51;100.00
44131;BME280;29792;48.726;9.248;2023-04-16T04:44:53;96864.50;;;7.51;100.00
44131;BME280;29792;48.726;9.248;2023-04-16T04:47:18;96869.59;;;7.51;100.00
44131;BME280;29792;48.726;9.248;2023-04-16T04:49:44;96866.22;;;7.50;100.00
44131;BME280;29792;48.726;9.248;2023-04-16T04:52:09;96869.50;;;7.52;100.00
44131;BME280;29792;48.726;9.248;2023-04-16T04:54:35;96878.75;;;7.53;100.00
44131;BME280;29792;48.726;9.248;2023-04-16T04:57:00;96872.84;;;7.53;100.00
44131;BME280;29792;48.726;9.248;2023-04-16T04:59:26;96880.59;;;7.51;100.00
44131;BME280;29792;48.726;9.248;2023-04-16T05:01:51;96877.94;;;7.53;100.00
44131;BME280;29792;48.726;9.248;2023-04-16T05:04:16;96879.78;;;7.51;100.00
44131;BME280;29792;48.726;9.248;2023-04-16T05:06:42;96884.88;;;7.51;100.00
44131;BME280;29792;48.726;9.248;2023-04-16T05:09:08;96886.63;;;7.50;100.00
44131;BME280;29792;48.726;9.248;2023-04-16T05:11:37;96889.16;;;7.50;100.00
44131;BME280;29792;48.726;9.248;2023-04-16T05:14:02;96899.25;;;7.52;100.00
44131;BME280;29792;48.726;9.248;2023-04-16T05:16:28;96897.41;;;7.54;100.00
44131;BME280;29792;48.726;9.248;2023-04-16T05:18:53;96899.63;;;7.58;100.00
44131;BME280;29792;48.726;9.248;2023-04-16T05:21:20;96907.19;;;7.60;100.00
44131;BME280;29792;48.726;9.248;2023-04-16T05:23:45;96905.53;;;7.59;100.00
44131;BME280;29792;48.726;9.248;2023-04-16T05:26:11;96903.00;;;7.59;100.00
44131;BME280;29792;48.726;9.248;2023-04-16T05:28:36;96907.47;;;7.55;100.00
44131;BME280;29792;48.726;9.248;2023-04-16T05:31:01;96917.56;;;7.57;100.00
44131;BME280;29792;48.726;9.248;2023-04-16T05:33:26;96914.22;;;7.56;100.00
44131;BME280;29792;48.726;9.248;2023-04-16T05:35:52;96918.59;;;7.54;100.00
44131;BME280;29792;48.726;9.248;2023-04-16T05:38:17;96920.47;;;7.52;100.00
44131;BME280;29792;48.726;9.248;2023-04-16T05:40:42;96924.84;;;7.50;100.00
44131;BME280;29792;48.726;9.248;2023-04-16T05:43:07;96933.41;;;7.49;100.00
44131;BME280;29792;48.726;9.248;2023-04-16T05:45:33;96927.50;;;7.49;100.00
44131;BME280;29792;48.726;9.248;2023-04-16T05:48:04;96931.78;;;7.48;100.00
44131;BME280;29792;48.726;9.248;2023-04-16T05:50:29;96933.41;;;7.49;100.00
44131;BME280;29792;48.726;9.248;2023-04-16T05:52:54;96927.38;;;7.50;100.00
44131;BME280;29792;48.726;9.248;2023-04-16T05:55:20;96932.28;;;7.53;100.00
44131;BME280;29792;48.726;9.248;2023-04-16T05:57:45;96938.31;;;7.52;100.00
44131;BME280;29792;48.726;9.248;2023-04-16T06:00:10;96944.09;;;7.54;100.00
44131;BME280;29792;48.726;9.248;2023-04-16T06:02:36;96942.47;;;7.53;100.00
44131;BME280;29792;48.726;9.248;2023-04-16T06:05:01;96940.03;;;7.52;100.00
44131;BME280;29792;48.726;9.248;2023-04-16T06:07:26;96937.38;;;7.53;100.00
44131;BME280;29792;48.726;9.248;2023-04-16T06:09:51;96939.81;;;7.55;100.00
44131;BME280;29792;48.726;9.248;2023-04-16T06:12:17;96939.69;;;7.56;100.00
44131;BME280;29792;48.726;9.248;2023-04-16T06:14:42;96948.97;;;7.57;100.00
44131;BME280;29792;48.726;9.248;2023-04-16T06:17:07;96943.06;;;7.57;100.00
44131;BME280;29792;48.726;9.248;2023-04-16T06:19:32;96949.91;;;7.56;100.00
44131;BME280;29792;48.726;9.248;2023-04-16T06:21:58;96947.25;;;7.58;100.00
44131;BME280;29792;48.726;9.248;2023-04-16T06:24:23;96948.16;;;7.57;100.00
44131;BME280;29792;48.726;9.248;2023-04-16T06:26:48;96953.25;;;7.57;100.00
44131;BME280;29792;48.726;9.248;2023-04-16T06:29:14;96956.81;;;7.54;100.00
44131;BME280;29792;48.726;9.248;2023-04-16T06:31:39;96954.91;;;7.58;100.00
44131;BME280;29792;48.726;9.248;2023-04-16T06:34:04;96951.53;;;7.57;100.00
44131;BME280;29792;48.726;9.248;2023-04-16T06:36:30;96955.50;;;7.61;100.00
44131;BME280;29792;48.726;9.248;2023-04-16T06:38:55;96954.38;;;7.65;100.00
44131;BME280;29792;48.726;9.248;2023-04-16T06:41:20;96951.00;;;7.65;100.00
44131;BME280;29792;48.726;9.248;2023-04-16T06:43:46;96957.63;;;7.68;100.00
44131;BME280;29792;48.726;9.248;2023-04-16T06:46:12;96948.97;;;7.70;100.00
44131;BME280;29792;48.726;9.248;2023-04-16T06:48:37;96959.94;;;7.71;100.00
44131;BME280;29792;48.726;9.248;2023-04-16T06:51:02;96953.72;;;7.75;100.00
44131;BME280;29792;48.726;9.248;2023-04-16T06:53:28;96960.94;;;7.81;100.00
44131;BME280;29792;48.726;9.248;2023-04-16T06:55:53;96965.13;;;7.82;100.00
44131;BME280;29792;48.726;9.248;2023-04-16T06:58:18;96967.47;;;7.85;100.00
44131;BME280;29792;48.726;9.248;2023-04-16T07:00:44;96968.16;;;7.87;100.00
44131;BME280;29792;48.726;9.248;2023-04-16T07:03:10;96972.13;;;7.91;100.00
44131;BME280;29792;48.726;9.248;2023-04-16T07:05:35;96971.22;;;7.92;100.00
44131;BME280;29792;48.726;9.248;2023-04-16T07:08:00;96969.47;;;7.92;100.00
44131;BME280;29792;48.726;9.248;2023-04-16T07:10:25;96969.47;;;7.92;100.00
44131;BME280;29792;48.726;9.248;2023-04-16T07:12:51;96976.91;;;7.95;100.00
44131;BME280;29792;48.726;9.248;2023-04-16T07:15:16;96977.63;;;7.97;100.00
44131;BME280;29792;48.726;9.248;2023-04-16T07:17:41;96976.78;;;7.97;100.00
44131;BME280;29792;48.726;9.248;2023-04-16T07:20:07;96975.97;;;7.96;100.00
44131;BME280;29792;48.726;9.248;2023-04-16T07:22:32;96973.53;;;7.95;100.00
44131;BME280;29792;48.726;9.248;2023-04-16T07:24:58;96976.59;;;8.00;100.00
44131;BME280;29792;48.726;9.248;2023-04-16T07:27:23;96980.78;;;8.01;100.00
44131;BME280;29792;48.726;9.248;2023-04-16T07:29:48;96976.25;;;8.04;100.00
44131;BME280;29792;48.726;9.248;2023-04-16T07:32:14;96980.25;;;8.09;100.00
44131;BME280;29792;48.726;9.248;2023-04-16T07:34:40;96976.16;;;8.06;100.00
44131;BME280;29792;48.726;9.248;2023-04-16T07:37:05;96981.88;;;8.10;100.00
44131;BME280;29792;48.726;9.248;2023-04-16T07:39:31;96982.34;;;8.15;100.00
44131;BME280;29792;48.726;9.248;2023-04-16T07:41:56;96993.84;;;8.20;100.00
44131;BME280;29792;48.726;9.248;2023-04-16T07:44:21;96995.75;;;8.29;100.00
44131;BME280;29792;48.726;9.248;2023-04-16T07:46:46;96992.47;;;8.27;100.00
44131;BME280;29792;48.726;9.248;2023-04-16T07:49:12;96995.84;;;8.28;100.00
44131;BME280;29792;48.726;9.248;2023-04-16T07:51:37;96996.81;;;8.27;100.00
44131;BME280;29792;48.726;9.248;2023-04-16T07:54:02;97006.78;;;8.30;100.00
44131;BME280;29792;48.726;9.248;2023-04-16T07:56:27;97008.34;;;8.32;100.00
44131;BME280;29792;48.726;9.248;2023-04-16T07:58:53;97007.41;;;8.33;100.00
44131;BME280;29792;48.726;9.248;2023-04-16T08:01:18;97008.81;;;8.37;100.00
44131;BME280;29792;48.726;9.248;2023-04-16T08:03:43;97011.88;;;8.43;100.00
44131;BME280;29792;48.726;9.248;2023-04-16T08:06:09;97011.16;;;8.40;100.00
44131;BME280;29792;48.726;9.248;2023-04-16T08:08:34;97023.91;;;8.40;100.00
44131;BME280;29792;48.726;9.248;2023-04-16T08:11:00;97017.28;;;8.38;100.00
44131;BME280;29792;48.726;9.248;2023-04-16T08:13:25;97025.75;;;8.38;100.00
44131;BME280;29792;48.726;9.248;2023-04-16T08:15:50;97024.72;;;8.41;100.00
44131;BME280;29792;48.726;9.248;2023-04-16T08:18:16;97025.44;;;8.43;100.00
44131;BME280;29792;48.726;9.248;2023-04-16T08:20:41;97030.09;;;8.49;100.00
44131;BME280;29792;48.726;9.248;2023-04-16T08:23:07;97035.94;;;8.51;100.00
44131;BME280;29792;48.726;9.248;2023-04-16T08:25:35;97035.78;;;8.53;100.00
44131;BME280;29792;48.726;9.248;2023-04-16T08:28:00;97033.25;;;8.53;100.00
44131;BME280;29792;48.726;9.248;2023-04-16T08:30:26;97042.63;;;8.52;100.00
44131;BME280;29792;48.726;9.248;2023-04-16T08:32:51;97045.31;;;8.51;100.00
44131;BME280;29792;48.726;9.248;2023-04-16T08:35:16;97047.16;;;8.49;100.00
44131;BME280;29792;48.726;9.248;2023-04-16T08:37:42;97049.91;;;8.46;100.00
44131;BME280;29792;48.726;9.248;2023-04-16T08:40:07;97051.66;;;8.45;100.00
44131;BME280;29792;48.726;9.248;2023-04-16T08:42:49;97042.06;;;8.49;100.00
44131;BME280;29792;48.726;9.248;2023-04-16T08:45:17;97051.09;;;8.53;100.00
44131;BME280;29792;48.726;9.248;2023-04-16T08:47:50;97060.41;;;8.54;100.00
44131;BME280;29792;48.726;9.248;2023-04-16T08:50:21;97061.00;;;8.57;100.00
44131;BME280;29792;48.726;9.248;2023-04-16T08:52:58;97063.47;;;8.59;100.00
44131;BME280;29792;48.726;9.248;2023-04-16T08:55:36;97058.13;;;8.62;100.00
44131;BME280;29792;48.726;9.248;2023-04-16T08:58:11;97061.16;;;8.67;100.00
44131;BME280;29792;48.726;9.248;2023-04-16T09:00:38;97054.09;;;8.70;100.00
44131;BME280;29792;48.726;9.248;2023-04-16T09:03:05;97058.88;;;8.75;100.00
44131;BME280;29792;48.726;9.248;2023-04-16T09:05:32;97064.34;;;8.82;100.00
44131;BME280;29792;48.726;9.248;2023-04-16T09:07:57;97062.38;;;8.85;100.00
44131;BME280;29792;48.726;9.248;2023-04-16T09:10:24;97065.44;;;8.90;100.00
44131;BME280;29792;48.726;9.248;2023-04-16T09:12:50;97072.03;;;8.93;100.00
44131;BME280;29792;48.726;9.248;2023-04-16T09:15:16;97065.69;;;8.98;100.00
44131;BME280;29792;48.726;9.248;2023-04-16T09:17:41;97066.88;;;9.05;100.00
44131;BME280;29792;48.726;9.248;2023-04-16T09:20:07;97080.72;;;9.14;100.00
44131;BME280;29792;48.726;9.248;2023-04-16T09:22:36;97070.00;;;9.09;100.00
44131;BME280;29792;48.726;9.248;2023-04-16T09:25:01;97072.00;;;9.16;100.00
44131;BME280;29792;48.726;9.248;2023-04-16T09:27:27;97084.09;;;9.26;100.00
44131;BME280;29792;48.726;9.248;2023-04-16T09:29:53;97077.13;;;9.28;100.00
44131;BME280;29792;48.726;9.248;2023-04-16T09:32:24;97072.84;;;9.28;100.00
44131;BME280;29792;48.726;9.248;2023-04-16T09:34:58;97081.22;;;9.30;100.00
44131;BME280;29792;48.726;9.248;2023-04-16T09:37:26;97075.66;;;9.36;100.00
44131;BME280;29792;48.726;9.248;2023-04-16T09:39:58;97086.47;;;9.40;100.00
44131;BME280;29792;48.726;9.248;2023-04-16T09:42:28;97078.44;;;9.44;100.00
44131;BME280;29792;48.726;9.248;2023-04-16T09:44:54;97080.19;;;9.44;100.00
44131;BME280;29792;48.726;9.248;2023-04-16T09:47:20;97087.16;;;9.42;100.00
44131;BME280;29792;48.726;9.248;2023-04-16T09:49:45;97095.63;;;9.42;100.00
44131;BME280;29792;48.726;9.248;2023-04-16T09:52:15;97093.91;;;9.43;100.00
44131;BME280;29792;48.726;9.248;2023-04-16T09:54:52;97086.00;;;9.46;100.00
44131;BME280;29792;48.726;9.248;2023-04-16T09:57:23;97095.06;;;9.50;100.00
44131;BME280;29792;48.726;9.248;2023-04-16T09:59:53;97092.19;;;9.54;100.00
44131;BME280;29792;48.726;9.248;2023-04-16T10:02:26;97099.38;;;9.49;100.00
44131;BME280;29792;48.726;9.248;2023-04-16T10:04:53;97100.31;;;9.48;100.00
44131;BME280;29792;48.726;9.248;2023-04-16T10:07:20;97106.47;;;9.46;100.00
44131;BME280;29792;48.726;9.248;2023-04-16T10:09:46;97098.09;;;9.44;100.00
44131;BME280;29792;48.726;9.248;2023-04-16T10:12:18;97109.69;;;9.37;100.00
44131;BME280;29792;48.726;9.248;2023-04-16T10:14:44;97109.69;;;9.37;100.00
44131;BME280;29792;48.726;9.248;2023-04-16T10:17:09;97105.72;;;9.33;100.00
44131;BME280;29792;48.726;9.248;2023-04-16T10:19:35;97107.09;;;9.26;100.00
44131;BME280;29792;48.726;9.248;2023-04-16T10:22:01;97113.97;;;9.25;100.00
44131;BME280;29792;48.726;9.248;2023-04-16T10:24:30;97121.63;;;9.25;100.00
44131;BME280;29792;48.726;9.248;2023-04-16T10:26:56;97112.56;;;9.21;100.00
44131;BME280;29792;48.726;9.248;2023-04-16T10:29:22;97123.59;;;9.22;100.00
44131;BME280;29792;48.726;9.248;2023-04-16T10:31:49;97118.69;;;9.18;100.00
44131;BME280;29792;48.726;9.248;2023-04-16T10:34:15;97115.84;;;9.23;100.00
44131;BME280;29792;48.726;9.248;2023-04-16T10:36:41;97118.38;;;9.23;100.00
44131;BME280;29792;48.726;9.248;2023-04-16T10:39:10;97119.06;;;9.25;100.00
44131;BME280;29792;48.726;9.248;2023-04-16T10:41:37;97121.06;;;9.33;100.00
44131;BME280;29792;48.726;9.248;2023-04-16T10:44:06;97120.63;;;9.39;100.00
44131;BME280;29792;48.726;9.248;2023-04-16T10:46:40;97117.63;;;9.45;100.00
44131;BME280;29792;48.726;9.248;2023-04-16T10:49:14;97115.31;;;9.53;100.00
44131;BME280;29792;48.726;9.248;2023-04-16T10:51:40;97120.78;;;9.60;100.00
44131;BME280;29792;48.726;9.248;2023-04-16T10:56:36;97117.75;;;9.66;100.00
44131;BME280;29792;48.726;9.248;2023-04-16T10:59:05;97127.97;;;9.66;100.00
44131;BME280;29792;48.726;9.248;2023-04-16T11:01:52;97123.56;;;9.68;100.00
44131;BME280;29792;48.726;9.248;2023-04-16T11:12:14;97135.09;;;9.73;100.00
44131;BME280;29792;48.726;9.248;2023-04-16T11:14:46;97124.19;;;9.71;100.00
44131;BME280;29792;48.726;9.248;2023-04-16T11:17:14;97130.47;;;9.78;100.00
44131;BME280;29792;48.726;9.248;2023-04-16T11:19:41;97129.03;;;9.74;100.00
44131;BME280;29792;48.726;9.248;2023-04-16T11:22:07;97132.66;;;9.72;100.00
44131;BME280;29792;48.726;9.248;2023-04-16T11:24:32;97127.41;;;9.73;100.00
44131;BME280;29792;48.726;9.248;2023-04-16T11:26:58;97135.44;;;9.69;100.00
44131;BME280;29792;48.726;9.248;2023-04-16T11:29:23;97129.41;;;9.70;100.00
44131;BME280;29792;48.726;9.248;2023-04-16T11:31:53;97129.28;;;9.71;100.00
44131;BME280;29792;48.726;9.248;2023-04-16T11:34:18;97134.50;;;9.70;100.00
44131;BME280;29792;48.726;9.248;2023-04-16T11:36:48;97134.28;;;9.62;100.00
44131;BME280;29792;48.726;9.248;2023-04-16T11:39:14;97138.69;;;9.60;100.00
44131;BME280;29792;48.726;9.248;2023-04-16T11:41:46;97130.09;;;9.61;100.00
44131;BME280;29792;48.726;9.248;2023-04-16T11:44:25;97145.22;;;9.64;100.00
44131;BME280;29792;48.726;9.248;2023-04-16T11:46:52;97146.03;;;9.64;100.00
44131;BME280;29792;48.726;9.248;2023-04-16T11:49:30;97142.75;;;9.62;100.00
44131;BME280;29792;48.726;9.248;2023-04-16T11:51:55;97139.84;;;9.67;100.00
44131;BME280;29792;48.726;9.248;2023-04-16T11:54:22;97141.47;;;9.68;100.00
44131;BME280;29792;48.726;9.248;2023-04-16T11:56:49;97132.88;;;9.69;100.00
44131;BME280;29792;48.726;9.248;2023-04-16T12:01:44;97143.13;;;9.69;100.00
44131;BME280;29792;48.726;9.248;2023-04-16T12:04:12;97146.38;;;9.71;100.00
44131;BME280;29792;48.726;9.248;2023-04-16T12:06:38;97140.34;;;9.72;100.00
44131;BME280;29792;48.726;9.248;2023-04-16T12:09:22;97143.13;;;9.69;100.00
44131;BME280;29792;48.726;9.248;2023-04-16T12:11:48;97146.50;;;9.69;100.00
44131;BME280;29792;48.726;9.248;2023-04-16T12:14:14;97146.94;;;9.63;100.00
44131;BME280;29792;48.726;9.248;2023-04-16T12:16:39;97150.44;;;9.62;100.00
44131;BME280;29792;48.726;9.248;2023-04-16T12:19:04;97149.63;;;9.62;100.00
44131;BME280;29792;48.726;9.248;2023-04-16T12:21:46;97154.38;;;9.66;100.00
44131;BME280;29792;48.726;9.248;2023-04-16T12:24:14;97159.28;;;9.69;100.00
44131;BME280;29792;48.726;9.248;2023-04-16T12:26:42;97166.13;;;9.69;100.00
44131;BME280;29792;48.726;9.248;2023-04-16T12:29:20;97163.13;;;9.64;100.00
44131;BME280;29792;48.726;9.248;2023-04-16T12:31:47;97162.41;;;9.62;100.00
44131;BME280;29792;48.726;9.248;2023-04-16T12:34:13;97161.69;;;9.60;100.00
44131;BME280;29792;48.726;9.248;2023-04-16T12:36:42;97157.50;;;9.58;100.00
44131;BME280;29792;48.726;9.248;2023-04-16T12:39:08;97160.97;;;9.57;100.00
44131;BME280;29792;48.726;9.248;2023-04-16T12:41:39;97158.44;;;9.57;100.00
44131;BME280;29792;48.726;9.248;2023-04-16T12:44:07;97151.16;;;9.64;100.00
44131;BME280;29792;48.726;9.248;2023-04-16T12:46:39;97158.09;;;9.73;100.00
44131;BME280;29792;48.726;9.248;2023-04-16T12:49:05;97160.34;;;9.78;100.00
44131;BME280;29792;48.726;9.248;2023-04-16T12:51:31;97158.34;;;9.81;100.00
44131;BME280;29792;48.726;9.248;2023-04-16T12:53:57;97159.06;;;9.83;100.00
44131;BME280;29792;48.726;9.248;2023-04-16T12:56:22;97162.91;;;9.78;100.00
44131;BME280;29792;48.726;9.248;2023-04-16T12:58:48;97163.38;;;9.72;100.00
44131;BME280;29792;48.726;9.248;2023-04-16T13:01:16;97163.69;;;9.67;100.00
44131;BME280;29792;48.726;9.248;2023-04-16T13:03:42;97161.47;;;9.63;100.00
44131;BME280;29792;48.726;9.248;2023-04-16T13:06:07;97156.59;;;9.60;100.00
44131;BME280;29792;48.726;9.248;2023-04-16T13:08:32;97151.47;;;9.60;100.00